sensor_id;sensor_type;location;lat;lon;timestamp;temperature;humidity
42715;DHT22;28351;51.480;5.706;2023-09-12T00:02:20;19.50;99.90
42715;DHT22;28351;51.480;5.706;2023-09-12T00:04:46;19.60;99.90
42715;DHT22;28351;51.480;5.706;2023-09-12T00:07:12;19.50;99.90
42715;DHT22;28351;51.480;5.706;2023-09-12T00:09:37;19.40;99.90
42715;DHT22;28351;51.480;5.706;2023-09-12T00:12:03;19.40;99.90
42715;DHT22;28351;51.480;5.706;2023-09-12T00:14:29;19.30;99.90
42715;DHT22;28351;51.480;5.706;2023-09-12T00:16:54;19.30;99.90
42715;DHT22;28351;51.480;5.706;2023-09-12T00:19:21;19.40;99.90
42715;DHT22;28351;51.480;5.706;2023-09-12T00:21:46;19.40;99.90
42715;DHT22;28351;51.480;5.706;2023-09-12T00:24:12;19.30;99.90
42715;DHT22;28351;51.480;5.706;2023-09-12T00:26:37;19.20;99.90
42715;DHT22;28351;51.480;5.706;2023-09-12T00:29:03;19.10;99.90
42715;DHT22;28351;51.480;5.706;2023-09-12T00:31:28;19.00;99.90
42715;DHT22;28351;51.480;5.706;2023-09-12T00:33:54;19.10;99.90
42715;DHT22;28351;51.480;5.706;2023-09-12T00:36:20;19.10;99.90
42715;DHT22;28351;51.480;5.706;2023-09-12T00:38:45;19.00;99.90
42715;DHT22;28351;51.480;5.706;2023-09-12T00:41:11;19.00;99.90
42715;DHT22;28351;51.480;5.706;2023-09-12T00:43:36;19.00;99.90
42715;DHT22;28351;51.480;5.706;2023-09-12T00:46:02;19.00;99.90
42715;DHT22;28351;51.480;5.706;2023-09-12T00:48:28;19.10;99.90
42715;DHT22;28351;51.480;5.706;2023-09-12T00:50:55;19.10;99.90
42715;DHT22;28351;51.480;5.706;2023-09-12T00:53:21;19.10;99.90
42715;DHT22;28351;51.480;5.706;2023-09-12T00:55:51;19.10;99.90
42715;DHT22;28351;51.480;5.706;2023-09-12T00:58:19;19.00;99.90
42715;DHT22;28351;51.480;5.706;2023-09-12T01:00:45;18.90;99.90
42715;DHT22;28351;51.480;5.706;2023-09-12T01:03:11;18.90;99.90
42715;DHT22;28351;51.480;5.706;2023-09-12T01:05:37;18.80;99.90
42715;DHT22;28351;51.480;5.706;2023-09-12T01:08:03;18.70;99.90
42715;DHT22;28351;51.480;5.706;2023-09-12T01:10:28;18.70;99.90
42715;DHT22;28351;51.480;5.706;2023-09-12T01:12:54;18.70;99.90
42715;DHT22;28351;51.480;5.706;2023-09-12T01:15:20;18.60;99.90
42715;DHT22;28351;51.480;5.706;2023-09-12T01:17:46;18.60;99.90
42715;DHT22;28351;51.480;5.706;2023-09-12T01:20:14;18.50;99.90
42715;DHT22;28351;51.480;5.706;2023-09-12T01:22:58;18.50;99.90
42715;DHT22;28351;51.480;5.706;2023-09-12T01:25:57;18.50;99.90
42715;DHT22;28351;51.480;5.706;2023-09-12T01:28:32;18.50;99.90
42715;DHT22;28351;51.480;5.706;2023-09-12T01:31:01;18.40;99.90
42715;DHT22;28351;51.480;5.706;2023-09-12T01:33:28;18.40;99.90
42715;DHT22;28351;51.480;5.706;2023-09-12T01:35:54;18.40;99.90
42715;DHT22;28351;51.480;5.706;2023-09-12T01:38:21;18.40;99.90
42715;DHT22;28351;51.480;5.706;2023-09-12T01:40:49;18.40;99.90
42715;DHT22;28351;51.480;5.706;2023-09-12T01:43:17;18.30;99.90
42715;DHT22;28351;51.480;5.706;2023-09-12T01:45:45;18.30;99.90
42715;DHT22;28351;51.480;5.706;2023-09-12T01:48:12;18.30;99.90
42715;DHT22;28351;51.480;5.706;2023-09-12T01:50:39;18.40;99.90
42715;DHT22;28351;51.480;5.706;2023-09-12T01:53:05;18.40;99.90
42715;DHT22;28351;51.480;5.706;2023-09-12T01:55:30;18.30;99.90
42715;DHT22;28351;51.480;5.706;2023-09-12T01:57:59;18.40;99.90
42715;DHT22;28351;51.480;5.706;2023-09-12T02:00:25;18.30;99.90
42715;DHT22;28351;51.480;5.706;2023-09-12T02:02:51;18.30;99.90
42715;DHT22;28351;51.480;5.706;2023-09-12T02:05:20;18.30;99.90
42715;DHT22;28351;51.480;5.706;2023-09-12T02:07:47;18.30;99.90
42715;DHT22;28351;51.480;5.706;2023-09-12T02:10:14;18.30;99.90
42715;DHT22;28351;51.480;5.706;2023-09-12T02:12:39;18.30;99.90
42715;DHT22;28351;51.480;5.706;2023-09-12T02:15:05;18.20;99.90
42715;DHT22;28351;51.480;5.706;2023-09-12T02:17:31;18.20;99.90
42715;DHT22;28351;51.480;5.706;2023-09-12T02:19:57;18.10;99.90
42715;DHT22;28351;51.480;5.706;2023-09-12T02:22:22;18.10;99.90
42715;DHT22;28351;51.480;5.706;2023-09-12T02:24:49;18.10;99.90
42715;DHT22;28351;51.480;5.706;2023-09-12T02:27:15;18.00;99.90
42715;DHT22;28351;51.480;5.706;2023-09-12T02:29:41;18.00;99.90
42715;DHT22;28351;51.480;5.706;2023-09-12T02:32:07;18.00;99.90
42715;DHT22;28351;51.480;5.706;2023-09-12T02:34:33;18.00;99.90
42715;DHT22;28351;51.480;5.706;2023-09-12T02:36:59;17.90;99.90
42715;DHT22;28351;51.480;5.706;2023-09-12T02:39:24;17.80;99.90
42715;DHT22;28351;51.480;5.706;2023-09-12T02:41:50;17.80;99.90
42715;DHT22;28351;51.480;5.706;2023-09-12T02:44:15;17.80;99.90
42715;DHT22;28351;51.480;5.706;2023-09-12T02:46:41;17.80;99.90
42715;DHT22;28351;51.480;5.706;2023-09-12T02:49:07;17.90;99.90
42715;DHT22;28351;51.480;5.706;2023-09-12T02:51:33;17.90;99.90
42715;DHT22;28351;51.480;5.706;2023-09-12T02:53:58;17.90;99.90
42715;DHT22;28351;51.480;5.706;2023-09-12T02:56:24;17.90;99.90
42715;DHT22;28351;51.480;5.706;2023-09-12T02:58:50;17.80;99.90
42715;DHT22;28351;51.480;5.706;2023-09-12T03:01:19;17.90;99.90
42715;DHT22;28351;51.480;5.706;2023-09-12T03:03:51;17.80;99.90
42715;DHT22;28351;51.480;5.706;2023-09-12T03:06:17;17.80;99.90
42715;DHT22;28351;51.480;5.706;2023-09-12T03:08:45;17.80;99.90
42715;DHT22;28351;51.480;5.706;2023-09-12T03:11:11;17.80;99.90
42715;DHT22;28351;51.480;5.706;2023-09-12T03:13:39;17.80;99.90
42715;DHT22;28351;51.480;5.706;2023-09-12T03:16:04;17.80;99.90
42715;DHT22;28351;51.480;5.706;2023-09-12T03:18:30;17.60;99.90
42715;DHT22;28351;51.480;5.706;2023-09-12T03:20:56;17.60;99.90
42715;DHT22;28351;51.480;5.706;2023-09-12T03:23:22;17.60;99.90
42715;DHT22;28351;51.480;5.706;2023-09-12T03:25:47;17.60;99.90
42715;DHT22;28351;51.480;5.706;2023-09-12T03:28:13;17.60;99.90
42715;DHT22;28351;51.480;5.706;2023-09-12T03:30:39;17.50;99.90
42715;DHT22;28351;51.480;5.706;2023-09-12T03:33:05;17.50;99.90
42715;DHT22;28351;51.480;5.706;2023-09-12T03:35:34;17.50;99.90
42715;DHT22;28351;51.480;5.706;2023-09-12T03:37:59;17.40;99.90
42715;DHT22;28351;51.480;5.706;2023-09-12T03:40:28;17.50;99.90
42715;DHT22;28351;51.480;5.706;2023-09-12T03:42:53;17.50;99.90
42715;DHT22;28351;51.480;5.706;2023-09-12T03:45:19;17.50;99.90
42715;DHT22;28351;51.480;5.706;2023-09-12T03:47:44;17.60;99.90
42715;DHT22;28351;51.480;5.706;2023-09-12T03:50:12;17.60;99.90
42715;DHT22;28351;51.480;5.706;2023-09-12T03:52:39;17.60;99.90
42715;DHT22;28351;51.480;5.706;2023-09-12T03:55:05;17.60;99.90
42715;DHT22;28351;51.480;5.706;2023-09-12T03:57:30;17.70;99.90
42715;DHT22;28351;51.480;5.706;2023-09-12T03:59:57;17.70;99.90
42715;DHT22;28351;51.480;5.706;2023-09-12T04:02:22;17.70;99.90
42715;DHT22;28351;51.480;5.706;2023-09-12T04:04:48;17.70;99.90
42715;DHT22;28351;51.480;5.706;2023-09-12T04:07:14;17.70;99.90
42715;DHT22;28351;51.480;5.706;2023-09-12T04:09:39;17.70;99.90
42715;DHT22;28351;51.480;5.706;2023-09-12T04:12:06;17.80;99.90
42715;DHT22;28351;51.480;5.706;2023-09-12T04:14:32;17.80;99.90
42715;DHT22;28351;51.480;5.706;2023-09-12T04:16:58;17.80;99.90
42715;DHT22;28351;51.480;5.706;2023-09-12T04:19:24;17.80;99.90
42715;DHT22;28351;51.480;5.706;2023-09-12T04:21:50;17.90;99.90
42715;DHT22;28351;51.480;5.706;2023-09-12T04:24:15;17.90;99.90
42715;DHT22;28351;51.480;5.706;2023-09-12T04:26:43;18.00;99.90
42715;DHT22;28351;51.480;5.706;2023-09-12T04:29:10;18.00;99.90
42715;DHT22;28351;51.480;5.706;2023-09-12T04:31:35;18.00;99.90
42715;DHT22;28351;51.480;5.706;2023-09-12T04:34:01;17.90;99.90
42715;DHT22;28351;51.480;5.706;2023-09-12T04:36:27;18.00;99.90
42715;DHT22;28351;51.480;5.706;2023-09-12T04:38:52;17.90;99.90
42715;DHT22;28351;51.480;5.706;2023-09-12T04:41:18;17.90;99.90
42715;DHT22;28351;51.480;5.706;2023-09-12T04:43:44;18.00;99.90
42715;DHT22;28351;51.480;5.706;2023-09-12T04:46:10;18.00;99.90
42715;DHT22;28351;51.480;5.706;2023-09-12T04:48:37;18.00;99.90
42715;DHT22;28351;51.480;5.706;2023-09-12T04:51:03;18.00;99.90
42715;DHT22;28351;51.480;5.706;2023-09-12T04:53:36;18.00;99.90
42715;DHT22;28351;51.480;5.706;2023-09-12T04:56:02;18.00;99.90
42715;DHT22;28351;51.480;5.706;2023-09-12T04:58:28;18.10;99.90
42715;DHT22;28351;51.480;5.706;2023-09-12T05:00:55;18.00;99.90
42715;DHT22;28351;51.480;5.706;2023-09-12T05:03:21;18.10;99.90
42715;DHT22;28351;51.480;5.706;2023-09-12T05:05:47;18.20;99.90
42715;DHT22;28351;51.480;5.706;2023-09-12T05:08:13;18.30;99.90
42715;DHT22;28351;51.480;5.706;2023-09-12T05:10:39;18.30;99.90
42715;DHT22;28351;51.480;5.706;2023-09-12T05:13:05;18.40;99.90
42715;DHT22;28351;51.480;5.706;2023-09-12T05:15:31;18.30;99.90
42715;DHT22;28351;51.480;5.706;2023-09-12T05:17:56;18.30;99.90
42715;DHT22;28351;51.480;5.706;2023-09-12T05:20:22;18.30;99.90
42715;DHT22;28351;51.480;5.706;2023-09-12T05:22:48;18.30;99.90
42715;DHT22;28351;51.480;5.706;2023-09-12T05:25:13;18.30;99.90
42715;DHT22;28351;51.480;5.706;2023-09-12T05:27:39;18.30;99.90
42715;DHT22;28351;51.480;5.706;2023-09-12T05:30:05;18.30;99.90
42715;DHT22;28351;51.480;5.706;2023-09-12T05:32:31;18.30;99.90
42715;DHT22;28351;51.480;5.706;2023-09-12T05:34:57;18.30;99.90
42715;DHT22;28351;51.480;5.706;2023-09-12T05:37:23;18.30;99.90
42715;DHT22;28351;51.480;5.706;2023-09-12T05:39:49;18.30;99.90
42715;DHT22;28351;51.480;5.706;2023-09-12T05:42:14;18.30;99.90
42715;DHT22;28351;51.480;5.706;2023-09-12T05:44:47;18.40;99.90
42715;DHT22;28351;51.480;5.706;2023-09-12T05:47:12;18.30;99.90
42715;DHT22;28351;51.480;5.706;2023-09-12T05:49:38;18.30;99.90
42715;DHT22;28351;51.480;5.706;2023-09-12T05:52:04;18.30;99.90
42715;DHT22;28351;51.480;5.706;2023-09-12T05:54:29;18.40;99.90
42715;DHT22;28351;51.480;5.706;2023-09-12T05:56:55;18.40;99.90
42715;DHT22;28351;51.480;5.706;2023-09-12T05:59:21;18.30;99.90
42715;DHT22;28351;51.480;5.706;2023-09-12T06:01:46;18.30;99.90
42715;DHT22;28351;51.480;5.706;2023-09-12T06:04:13;18.30;99.90
42715;DHT22;28351;51.480;5.706;2023-09-12T06:06:39;18.30;99.90
42715;DHT22;28351;51.480;5.706;2023-09-12T06:09:05;18.40;99.90
42715;DHT22;28351;51.480;5.706;2023-09-12T06:11:30;18.40;99.90
42715;DHT22;28351;51.480;5.706;2023-09-12T06:13:56;18.40;99.90
42715;DHT22;28351;51.480;5.706;2023-09-12T06:16:22;18.40;99.90
42715;DHT22;28351;51.480;5.706;2023-09-12T06:18:48;18.40;99.90
42715;DHT22;28351;51.480;5.706;2023-09-12T06:21:14;18.40;99.90
42715;DHT22;28351;51.480;5.706;2023-09-12T06:23:39;18.40;99.90
42715;DHT22;28351;51.480;5.706;2023-09-12T06:26:05;18.50;99.90
42715;DHT22;28351;51.480;5.706;2023-09-12T06:28:31;18.40;99.90
42715;DHT22;28351;51.480;5.706;2023-09-12T06:30:58;18.50;99.90
42715;DHT22;28351;51.480;5.706;2023-09-12T06:33:25;18.50;99.90
42715;DHT22;28351;51.480;5.706;2023-09-12T06:35:51;18.50;99.90
42715;DHT22;28351;51.480;5.706;2023-09-12T06:38:18;18.60;99.90
42715;DHT22;28351;51.480;5.706;2023-09-12T06:40:45;18.50;99.90
42715;DHT22;28351;51.480;5.706;2023-09-12T06:43:11;18.50;99.90
42715;DHT22;28351;51.480;5.706;2023-09-12T06:45:37;18.50;99.90
42715;DHT22;28351;51.480;5.706;2023-09-12T06:48:04;18.50;99.90
42715;DHT22;28351;51.480;5.706;2023-09-12T06:50:30;18.50;99.90
42715;DHT22;28351;51.480;5.706;2023-09-12T06:52:57;18.50;99.90
42715;DHT22;28351;51.480;5.706;2023-09-12T06:55:23;18.50;99.90
42715;DHT22;28351;51.480;5.706;2023-09-12T06:57:49;18.60;99.90
42715;DHT22;28351;51.480;5.706;2023-09-12T07:00:15;18.60;99.90
42715;DHT22;28351;51.480;5.706;2023-09-12T07:02:42;18.70;99.90
42715;DHT22;28351;51.480;5.706;2023-09-12T07:05:08;18.70;99.90
42715;DHT22;28351;51.480;5.706;2023-09-12T07:07:34;18.80;99.90
42715;DHT22;28351;51.480;5.706;2023-09-12T07:10:00;18.90;99.90
42715;DHT22;28351;51.480;5.706;2023-09-12T07:12:28;19.00;99.90
42715;DHT22;28351;51.480;5.706;2023-09-12T07:14:54;19.20;99.90
42715;DHT22;28351;51.480;5.706;2023-09-12T07:17:21;19.20;99.90
42715;DHT22;28351;51.480;5.706;2023-09-12T07:19:47;19.30;99.90
42715;DHT22;28351;51.480;5.706;2023-09-12T07:22:13;19.40;99.90
42715;DHT22;28351;51.480;5.706;2023-09-12T07:24:38;19.50;99.90
42715;DHT22;28351;51.480;5.706;2023-09-12T07:27:04;19.50;99.90
42715;DHT22;28351;51.480;5.706;2023-09-12T07:29:31;19.50;99.90
42715;DHT22;28351;51.480;5.706;2023-09-12T07:31:57;19.70;99.90
42715;DHT22;28351;51.480;5.706;2023-09-12T07:34:23;19.80;99.90
42715;DHT22;28351;51.480;5.706;2023-09-12T07:36:49;19.80;99.90
42715;DHT22;28351;51.480;5.706;2023-09-12T07:39:17;19.70;99.90
42715;DHT22;28351;51.480;5.706;2023-09-12T07:41:42;19.80;99.90
42715;DHT22;28351;51.480;5.706;2023-09-12T07:44:08;20.00;99.90
42715;DHT22;28351;51.480;5.706;2023-09-12T07:46:39;20.10;99.90
42715;DHT22;28351;51.480;5.706;2023-09-12T07:49:05;20.10;99.90
42715;DHT22;28351;51.480;5.706;2023-09-12T07:51:31;20.00;99.90
42715;DHT22;28351;51.480;5.706;2023-09-12T07:53:56;19.90;99.90
42715;DHT22;28351;51.480;5.706;2023-09-12T07:56:22;19.90;99.90
42715;DHT22;28351;51.480;5.706;2023-09-12T07:58:48;19.90;99.90
42715;DHT22;28351;51.480;5.706;2023-09-12T08:01:15;19.90;99.90
42715;DHT22;28351;51.480;5.706;2023-09-12T08:03:42;19.80;99.90
42715;DHT22;28351;51.480;5.706;2023-09-12T08:06:09;19.80;99.90
42715;DHT22;28351;51.480;5.706;2023-09-12T08:08:34;19.90;99.90
42715;DHT22;28351;51.480;5.706;2023-09-12T08:11:00;20.00;99.90
42715;DHT22;28351;51.480;5.706;2023-09-12T08:13:27;20.10;99.90
42715;DHT22;28351;51.480;5.706;2023-09-12T08:15:53;20.10;99.90
42715;DHT22;28351;51.480;5.706;2023-09-12T08:18:19;20.00;99.90
42715;DHT22;28351;51.480;5.706;2023-09-12T08:20:45;20.00;99.90
42715;DHT22;28351;51.480;5.706;2023-09-12T08:23:10;20.00;99.90
42715;DHT22;28351;51.480;5.706;2023-09-12T08:25:36;20.00;99.90
42715;DHT22;28351;51.480;5.706;2023-09-12T08:28:02;20.00;99.90
42715;DHT22;28351;51.480;5.706;2023-09-12T08:30:27;20.20;99.90
42715;DHT22;28351;51.480;5.706;2023-09-12T08:32:55;20.20;99.90
42715;DHT22;28351;51.480;5.706;2023-09-12T08:35:21;20.20;99.90
42715;DHT22;28351;51.480;5.706;2023-09-12T08:37:47;20.30;99.90
42715;DHT22;28351;51.480;5.706;2023-09-12T08:40:13;20.30;99.90
42715;DHT22;28351;51.480;5.706;2023-09-12T08:42:41;20.40;99.90
42715;DHT22;28351;51.480;5.706;2023-09-12T08:45:15;20.50;99.90
42715;DHT22;28351;51.480;5.706;2023-09-12T08:47:42;20.60;99.90
42715;DHT22;28351;51.480;5.706;2023-09-12T08:50:13;20.80;99.90
42715;DHT22;28351;51.480;5.706;2023-09-12T08:52:40;20.80;99.90
42715;DHT22;28351;51.480;5.706;2023-09-12T08:55:06;20.90;99.90
42715;DHT22;28351;51.480;5.706;2023-09-12T08:57:33;21.00;99.90
42715;DHT22;28351;51.480;5.706;2023-09-12T09:00:01;21.10;99.90
42715;DHT22;28351;51.480;5.706;2023-09-12T09:02:35;21.10;99.90
42715;DHT22;28351;51.480;5.706;2023-09-12T09:05:02;21.30;99.90
42715;DHT22;28351;51.480;5.706;2023-09-12T09:07:39;21.60;99.90
42715;DHT22;28351;51.480;5.706;2023-09-12T09:10:06;21.80;99.90
42715;DHT22;28351;51.480;5.706;2023-09-12T09:12:34;21.90;99.90
42715;DHT22;28351;51.480;5.706;2023-09-12T09:15:26;22.00;99.90
42715;DHT22;28351;51.480;5.706;2023-09-12T09:17:53;21.80;99.90
42715;DHT22;28351;51.480;5.706;2023-09-12T09:20:34;21.80;99.90
42715;DHT22;28351;51.480;5.706;2023-09-12T09:23:07;21.80;99.90
42715;DHT22;28351;51.480;5.706;2023-09-12T09:25:41;22.00;99.90
42715;DHT22;28351;51.480;5.706;2023-09-12T09:28:22;22.00;99.90
42715;DHT22;28351;51.480;5.706;2023-09-12T09:30:50;21.90;99.90
42715;DHT22;28351;51.480;5.706;2023-09-12T09:33:20;22.10;99.90
42715;DHT22;28351;51.480;5.706;2023-09-12T09:35:47;22.30;99.90
42715;DHT22;28351;51.480;5.706;2023-09-12T09:38:13;22.30;99.90
42715;DHT22;28351;51.480;5.706;2023-09-12T09:40:42;22.50;99.90
42715;DHT22;28351;51.480;5.706;2023-09-12T09:43:08;22.70;99.90
42715;DHT22;28351;51.480;5.706;2023-09-12T09:45:43;23.00;99.90
42715;DHT22;28351;51.480;5.706;2023-09-12T09:48:10;23.10;99.90
42715;DHT22;28351;51.480;5.706;2023-09-12T09:50:35;23.20;99.90
42715;DHT22;28351;51.480;5.706;2023-09-12T09:53:02;23.10;99.90
42715;DHT22;28351;51.480;5.706;2023-09-12T09:55:30;23.00;99.90
42715;DHT22;28351;51.480;5.706;2023-09-12T09:57:56;22.90;99.90
42715;DHT22;28351;51.480;5.706;2023-09-12T10:00:23;23.10;99.90
42715;DHT22;28351;51.480;5.706;2023-09-12T10:02:50;23.60;99.90
42715;DHT22;28351;51.480;5.706;2023-09-12T10:05:17;23.90;99.90
42715;DHT22;28351;51.480;5.706;2023-09-12T10:07:47;23.90;99.90
42715;DHT22;28351;51.480;5.706;2023-09-12T10:10:13;23.90;99.90
42715;DHT22;28351;51.480;5.706;2023-09-12T10:12:48;23.90;99.90
42715;DHT22;28351;51.480;5.706;2023-09-12T10:15:15;23.90;99.90
42715;DHT22;28351;51.480;5.706;2023-09-12T10:17:46;23.70;99.90
42715;DHT22;28351;51.480;5.706;2023-09-12T10:20:16;23.60;99.90
42715;DHT22;28351;51.480;5.706;2023-09-12T10:23:05;23.70;99.90
42715;DHT22;28351;51.480;5.706;2023-09-12T10:25:35;23.80;99.90
42715;DHT22;28351;51.480;5.706;2023-09-12T10:28:04;23.70;99.90
42715;DHT22;28351;51.480;5.706;2023-09-12T10:30:30;24.10;99.90
42715;DHT22;28351;51.480;5.706;2023-09-12T10:32:57;24.50;99.90
42715;DHT22;28351;51.480;5.706;2023-09-12T10:35:23;24.60;99.90
42715;DHT22;28351;51.480;5.706;2023-09-12T10:37:49;24.50;99.90
42715;DHT22;28351;51.480;5.706;2023-09-12T10:40:17;24.40;99.90
42715;DHT22;28351;51.480;5.706;2023-09-12T10:42:43;24.40;99.90
42715;DHT22;28351;51.480;5.706;2023-09-12T10:45:10;24.90;99.90
42715;DHT22;28351;51.480;5.706;2023-09-12T10:47:36;25.20;99.90
42715;DHT22;28351;51.480;5.706;2023-09-12T10:50:02;25.40;99.90
42715;DHT22;28351;51.480;5.706;2023-09-12T10:52:29;25.20;99.90
42715;DHT22;28351;51.480;5.706;2023-09-12T10:54:55;25.30;99.90
42715;DHT22;28351;51.480;5.706;2023-09-12T10:57:21;25.20;99.90
42715;DHT22;28351;51.480;5.706;2023-09-12T11:02:33;25.20;99.90
42715;DHT22;28351;51.480;5.706;2023-09-12T11:05:03;25.60;99.90
42715;DHT22;28351;51.480;5.706;2023-09-12T11:12:42;26.20;99.90
42715;DHT22;28351;51.480;5.706;2023-09-12T11:15:08;26.40;99.90
42715;DHT22;28351;51.480;5.706;2023-09-12T11:17:39;27.30;99.90
42715;DHT22;28351;51.480;5.706;2023-09-12T11:20:07;28.50;99.90
42715;DHT22;28351;51.480;5.706;2023-09-12T11:22:43;28.00;99.90
42715;DHT22;28351;51.480;5.706;2023-09-12T11:25:22;28.10;99.90
42715;DHT22;28351;51.480;5.706;2023-09-12T11:30:21;28.50;99.90
42715;DHT22;28351;51.480;5.706;2023-09-12T11:32:49;28.80;99.90
42715;DHT22;28351;51.480;5.706;2023-09-12T11:35:22;29.50;99.90
42715;DHT22;28351;51.480;5.706;2023-09-12T11:37:49;30.80;99.90
42715;DHT22;28351;51.480;5.706;2023-09-12T11:40:17;31.60;98.20
42715;DHT22;28351;51.480;5.706;2023-09-12T11:42:43;31.80;97.60
42715;DHT22;28351;51.480;5.706;2023-09-12T11:45:10;32.60;97.10
42715;DHT22;28351;51.480;5.706;2023-09-12T11:47:44;33.10;96.10
42715;DHT22;28351;51.480;5.706;2023-09-12T11:50:32;32.10;96.40
42715;DHT22;28351;51.480;5.706;2023-09-12T11:53:08;32.00;97.10
42715;DHT22;28351;51.480;5.706;2023-09-12T11:55:47;31.20;97.00
42715;DHT22;28351;51.480;5.706;2023-09-12T11:58:15;30.30;99.70
42715;DHT22;28351;51.480;5.706;2023-09-12T12:00:55;29.40;98.50
42715;DHT22;28351;51.480;5.706;2023-09-12T12:03:23;29.30;99.90
42715;DHT22;28351;51.480;5.706;2023-09-12T12:05:49;30.90;98.60
42715;DHT22;28351;51.480;5.706;2023-09-12T12:08:16;30.00;98.20
42715;DHT22;28351;51.480;5.706;2023-09-12T12:10:42;29.10;99.90
42715;DHT22;28351;51.480;5.706;2023-09-12T12:13:12;28.80;99.90
42715;DHT22;28351;51.480;5.706;2023-09-12T12:15:37;28.40;99.90
42715;DHT22;28351;51.480;5.706;2023-09-12T12:18:05;27.80;99.90
42715;DHT22;28351;51.480;5.706;2023-09-12T12:20:30;27.70;99.90
42715;DHT22;28351;51.480;5.706;2023-09-12T12:22:56;27.20;99.90
42715;DHT22;28351;51.480;5.706;2023-09-12T12:25:22;27.20;99.90
42715;DHT22;28351;51.480;5.706;2023-09-12T12:27:49;26.80;99.90
42715;DHT22;28351;51.480;5.706;2023-09-12T12:30:15;26.50;99.90
42715;DHT22;28351;51.480;5.706;2023-09-12T12:32:42;26.20;99.90
42715;DHT22;28351;51.480;5.706;2023-09-12T12:35:16;26.10;99.90
42715;DHT22;28351;51.480;5.706;2023-09-12T12:37:42;26.10;99.90
42715;DHT22;28351;51.480;5.706;2023-09-12T12:40:12;27.20;99.90
42715;DHT22;28351;51.480;5.706;2023-09-12T12:42:41;30.40;99.90
42715;DHT22;28351;51.480;5.706;2023-09-12T12:45:15;33.00;98.10
42715;DHT22;28351;51.480;5.706;2023-09-12T12:47:41;34.50;95.20
42715;DHT22;28351;51.480;5.706;2023-09-12T12:50:11;33.60;95.60
42715;DHT22;28351;51.480;5.706;2023-09-12T12:52:38;33.50;95.50
42715;DHT22;28351;51.480;5.706;2023-09-12T12:55:11;32.60;95.30
42715;DHT22;28351;51.480;5.706;2023-09-12T12:57:39;30.40;96.70
42715;DHT22;28351;51.480;5.706;2023-09-12T13:00:10;28.70;99.10
42715;DHT22;28351;51.480;5.706;2023-09-12T13:02:37;27.50;99.90
42715;DHT22;28351;51.480;5.706;2023-09-12T13:05:03;26.70;99.90
42715;DHT22;28351;51.480;5.706;2023-09-12T13:07:35;26.40;99.90
42715;DHT22;28351;51.480;5.706;2023-09-12T13:10:02;26.10;99.90
42715;DHT22;28351;51.480;5.706;2023-09-12T13:12:30;25.90;99.90
42715;DHT22;28351;51.480;5.706;2023-09-12T13:14:55;25.90;99.90
42715;DHT22;28351;51.480;5.706;2023-09-12T13:17:21;25.90;99.90
42715;DHT22;28351;51.480;5.706;2023-09-12T13:19:47;25.80;99.90
42715;DHT22;28351;51.480;5.706;2023-09-12T13:22:12;25.90;99.90
42715;DHT22;28351;51.480;5.706;2023-09-12T13:24:38;26.00;99.90
42715;DHT22;28351;51.480;5.706;2023-09-12T13:27:04;26.40;99.90
42715;DHT22;28351;51.480;5.706;2023-09-12T13:29:29;28.60;99.90
42715;DHT22;28351;51.480;5.706;2023-09-12T13:31:55;31.00;99.90
42715;DHT22;28351;51.480;5.706;2023-09-12T13:34:21;32.50;98.50
42715;DHT22;28351;51.480;5.706;2023-09-12T13:36:46;32.90;95.70
42715;DHT22;28351;51.480;5.706;2023-09-12T13:39:12;33.10;95.90
42715;DHT22;28351;51.480;5.706;2023-09-12T13:41:38;32.00;96.20
42715;DHT22;28351;51.480;5.706;2023-09-12T13:44:05;30.90;97.20
42715;DHT22;28351;51.480;5.706;2023-09-12T13:46:31;31.00;98.20
42715;DHT22;28351;51.480;5.706;2023-09-12T13:48:57;30.40;97.60
42715;DHT22;28351;51.480;5.706;2023-09-12T13:51:26;29.70;99.00
42715;DHT22;28351;51.480;5.706;2023-09-12T13:53:52;28.60;99.90
42715;DHT22;28351;51.480;5.706;2023-09-12T13:56:18;27.90;99.90
42715;DHT22;28351;51.480;5.706;2023-09-12T13:58:43;27.60;99.90
42715;DHT22;28351;51.480;5.706;2023-09-12T14:01:09;27.80;99.90
42715;DHT22;28351;51.480;5.706;2023-09-12T14:03:34;28.40;99.60
42715;DHT22;28351;51.480;5.706;2023-09-12T14:06:00;28.30;98.60
42715;DHT22;28351;51.480;5.706;2023-09-12T14:08:26;28.10;99.10
42715;DHT22;28351;51.480;5.706;2023-09-12T14:10:51;28.40;99.90
42715;DHT22;28351;51.480;5.706;2023-09-12T14:13:17;29.50;99.90
42715;DHT22;28351;51.480;5.706;2023-09-12T14:15:43;30.60;99.90
42715;DHT22;28351;51.480;5.706;2023-09-12T14:18:08;31.80;98.50
42715;DHT22;28351;51.480;5.706;2023-09-12T14:20:34;32.70;96.30
42715;DHT22;28351;51.480;5.706;2023-09-12T14:22:59;33.40;94.40
42715;DHT22;28351;51.480;5.706;2023-09-12T14:25:27;33.30;93.40
42715;DHT22;28351;51.480;5.706;2023-09-12T14:27:52;32.30;93.50
42715;DHT22;28351;51.480;5.706;2023-09-12T14:30:18;31.00;97.10
42715;DHT22;28351;51.480;5.706;2023-09-12T14:32:46;30.00;97.70
42715;DHT22;28351;51.480;5.706;2023-09-12T14:35:11;29.40;98.50
42715;DHT22;28351;51.480;5.706;2023-09-12T14:37:37;29.00;99.50
42715;DHT22;28351;51.480;5.706;2023-09-12T14:40:04;28.50;99.10
42715;DHT22;28351;51.480;5.706;2023-09-12T14:42:30;28.50;99.90
42715;DHT22;28351;51.480;5.706;2023-09-12T14:44:56;28.50;98.80
42715;DHT22;28351;51.480;5.706;2023-09-12T14:47:22;28.40;98.40
42715;DHT22;28351;51.480;5.706;2023-09-12T14:49:48;28.60;99.90
42715;DHT22;28351;51.480;5.706;2023-09-12T14:52:14;29.40;99.30
42715;DHT22;28351;51.480;5.706;2023-09-12T14:54:39;30.30;96.70
42715;DHT22;28351;51.480;5.706;2023-09-12T14:57:05;30.10;98.70
42715;DHT22;28351;51.480;5.706;2023-09-12T14:59:30;30.10;98.30
42715;DHT22;28351;51.480;5.706;2023-09-12T15:01:56;30.40;96.80
42715;DHT22;28351;51.480;5.706;2023-09-12T15:04:22;30.50;96.30
42715;DHT22;28351;51.480;5.706;2023-09-12T15:06:49;30.00;98.80
42715;DHT22;28351;51.480;5.706;2023-09-12T15:09:15;30.10;99.90
42715;DHT22;28351;51.480;5.706;2023-09-12T15:11:40;29.40;99.00
42715;DHT22;28351;51.480;5.706;2023-09-12T15:14:06;29.00;98.90
42715;DHT22;28351;51.480;5.706;2023-09-12T15:16:32;28.60;97.80
42715;DHT22;28351;51.480;5.706;2023-09-12T15:19:00;28.20;99.90
42715;DHT22;28351;51.480;5.706;2023-09-12T15:21:26;27.80;99.90
42715;DHT22;28351;51.480;5.706;2023-09-12T15:23:51;27.40;99.90
42715;DHT22;28351;51.480;5.706;2023-09-12T15:26:17;27.10;99.90
42715;DHT22;28351;51.480;5.706;2023-09-12T15:28:43;26.80;99.90
42715;DHT22;28351;51.480;5.706;2023-09-12T15:31:08;26.60;99.90
42715;DHT22;28351;51.480;5.706;2023-09-12T15:33:34;26.50;99.90
42715;DHT22;28351;51.480;5.706;2023-09-12T15:36:00;26.40;99.90
42715;DHT22;28351;51.480;5.706;2023-09-12T15:38:27;26.30;99.90
42715;DHT22;28351;51.480;5.706;2023-09-12T15:40:53;26.20;99.90